createdAt,value
2023-02-01T00:01:09.459Z,6.60
2023-02-01T00:06:11.231Z,5.50
2023-02-01T00:11:13.601Z,4.90
2023-02-01T00:16:21.238Z,7.40
2023-02-01T00:21:23.446Z,7.50
2023-02-01T00:26:33.048Z,5.20
2023-02-01T00:31:36.892Z,5.90
2023-02-01T00:36:39.047Z,8.00
2023-02-01T00:41:41.693Z,7.50
2023-02-01T00:46:43.559Z,5.90
2023-02-01T00:51:45.313Z,6.20
2023-02-01T00:56:47.070Z,4.50
2023-02-01T01:01:48.921Z,2.40
2023-02-01T01:06:50.871Z,1.30
2023-02-01T01:11:53.793Z,2.30
2023-02-01T01:16:55.886Z,1.40
2023-02-01T01:21:57.620Z,1.00
2023-02-01T01:26:59.303Z,1.90
2023-02-01T01:32:01.490Z,1.60
2023-02-01T01:37:03.212Z,1.10
2023-02-01T01:42:05.000Z,1.90
2023-02-01T01:47:07.345Z,1.60
2023-02-01T01:52:09.782Z,1.70
2023-02-01T01:57:35.134Z,0.60
2023-02-01T02:02:39.657Z,1.80
2023-02-01T02:07:46.509Z,1.00
2023-02-01T02:12:49.679Z,2.90
2023-02-01T02:18:11.093Z,1.80
2023-02-01T02:23:44.717Z,2.80
2023-02-01T02:29:16.826Z,5.00
2023-02-01T02:34:59.544Z,3.60
2023-02-01T02:45:34.111Z,3.50
2023-02-01T02:51:01.466Z,3.30
2023-02-01T02:56:26.572Z,2.90
2023-02-01T03:01:49.563Z,3.50
2023-02-01T03:06:53.324Z,1.40
2023-02-01T03:12:20.742Z,1.40
2023-02-01T03:17:28.829Z,3.20
2023-02-01T03:22:33.801Z,2.10
2023-02-01T03:27:42.837Z,2.90
2023-02-01T03:33:02.669Z,4.80
2023-02-01T03:38:29.341Z,4.60
2023-02-01T03:43:38.426Z,3.30
2023-02-01T03:48:41.541Z,4.90
2023-02-01T03:53:47.637Z,3.70
2023-02-01T03:59:00.074Z,2.50
2023-02-01T04:04:05.064Z,4.70
2023-02-01T04:09:07.558Z,4.40
2023-02-01T04:14:09.681Z,6.20
2023-02-01T04:19:11.372Z,7.30
2023-02-01T04:24:13.341Z,6.40
2023-02-01T04:29:15.068Z,14.30
2023-02-01T04:34:17.023Z,13.50
2023-02-01T04:39:19.008Z,14.90
2023-02-01T04:44:20.884Z,19.10
2023-02-01T04:49:22.676Z,15.90
2023-02-01T04:54:24.662Z,11.40
2023-02-01T04:59:27.061Z,10.20
2023-02-01T05:04:28.787Z,11.20
2023-02-01T05:09:30.480Z,10.80
2023-02-01T05:14:32.214Z,16.50
2023-02-01T05:19:33.981Z,11.50
2023-02-01T05:24:35.812Z,10.60
2023-02-01T05:29:37.537Z,13.00
2023-02-01T05:34:39.310Z,9.50
2023-02-01T05:39:40.996Z,6.10
2023-02-01T05:44:43.270Z,18.70
2023-02-01T05:49:44.974Z,14.40
2023-02-01T05:54:50.618Z,8.80
2023-02-01T05:59:52.385Z,14.10
2023-02-01T06:04:54.119Z,15.20
2023-02-01T06:09:55.826Z,17.40
2023-02-01T06:15:00.225Z,13.90
2023-02-01T06:20:02.169Z,16.50
2023-02-01T06:25:06.339Z,15.30
2023-02-01T06:30:08.941Z,17.60
2023-02-01T06:35:17.384Z,15.70
2023-02-01T06:40:19.214Z,18.30
2023-02-01T06:45:21.707Z,23.00
2023-02-01T06:50:24.254Z,22.50
2023-02-01T06:55:26.235Z,19.30
2023-02-01T07:00:27.898Z,16.80
2023-02-01T07:05:29.681Z,24.00
2023-02-01T07:10:31.467Z,20.90
2023-02-01T07:15:35.288Z,25.90
2023-02-01T07:20:36.970Z,23.80
2023-02-01T07:25:38.786Z,26.70
2023-02-01T07:30:40.899Z,18.90
2023-02-01T07:35:42.684Z,15.80
2023-02-01T07:40:45.027Z,20.80
2023-02-01T07:45:53.131Z,19.40
2023-02-01T07:51:03.916Z,17.60
2023-02-01T07:56:12.086Z,20.40
2023-02-01T08:01:21.004Z,18.30
2023-02-01T08:06:24.480Z,23.90
2023-02-01T08:11:26.546Z,15.40
2023-02-01T08:16:28.526Z,18.80
2023-02-01T08:21:39.658Z,22.40
2023-02-01T08:26:41.799Z,17.70
2023-02-01T08:31:44.326Z,16.00
2023-02-01T08:36:46.972Z,23.40
2023-02-01T08:42:08.633Z,23.00
2023-02-01T08:47:10.345Z,23.60
2023-02-01T08:52:16.203Z,24.10
2023-02-01T08:57:19.013Z,26.20
2023-02-01T09:02:21.065Z,26.30
2023-02-01T09:07:22.796Z,25.40
2023-02-01T09:12:24.533Z,24.70
2023-02-01T09:17:30.453Z,17.00
2023-02-01T09:22:32.563Z,26.80
2023-02-01T09:27:34.834Z,30.40
2023-02-01T09:32:36.996Z,29.30
2023-02-01T09:37:38.807Z,18.80
2023-02-01T09:42:54.233Z,14.90
2023-02-01T09:48:01.629Z,14.90
2023-02-01T09:53:08.009Z,22.30
2023-02-01T09:58:17.600Z,20.10
2023-02-01T10:03:19.601Z,18.10
2023-02-01T10:08:28.136Z,14.80
2023-02-01T10:13:38.629Z,18.40
2023-02-01T10:18:49.384Z,13.90
2023-02-01T10:24:18.060Z,15.70
2023-02-01T10:29:23.867Z,22.10
2023-02-01T10:34:32.766Z,17.30
2023-02-01T10:39:34.568Z,18.10
2023-02-01T10:44:41.247Z,26.10
2023-02-01T10:50:18.604Z,25.30
2023-02-01T10:55:40.784Z,20.10
2023-02-01T11:00:54.694Z,19.10
2023-02-01T11:05:57.018Z,13.90
2023-02-01T11:11:06.698Z,13.10
2023-02-01T11:16:13.441Z,9.50
2023-02-01T11:21:15.468Z,7.30
2023-02-01T11:26:24.690Z,9.80
2023-02-01T11:31:29.075Z,10.70
2023-02-01T11:41:34.549Z,12.40
2023-02-01T11:46:36.603Z,12.00
2023-02-01T11:51:51.181Z,12.80
2023-02-01T11:57:18.262Z,14.90
2023-02-01T12:02:54.316Z,12.90
2023-02-01T12:08:21.061Z,15.00
2023-02-01T12:13:34.944Z,18.90
2023-02-01T12:18:47.843Z,15.90
2023-02-01T12:24:27.954Z,16.00
2023-02-01T12:29:43.782Z,10.40
2023-02-01T12:34:51.330Z,13.40
2023-02-01T12:40:14.923Z,15.30
2023-02-01T12:45:32.579Z,14.00
2023-02-01T12:50:44.569Z,24.30
2023-02-01T12:55:53.215Z,13.90
2023-02-01T13:01:06.239Z,10.00
2023-02-01T13:06:27.312Z,7.30
2023-02-01T13:11:32.461Z,13.10
2023-02-01T13:16:43.900Z,17.10
2023-02-01T13:21:54.159Z,11.60
2023-02-01T13:26:56.626Z,11.90
2023-02-01T13:32:19.833Z,6.80
2023-02-01T13:37:57.396Z,9.80
2023-02-01T13:43:10.682Z,7.80
2023-02-01T13:48:22.824Z,9.30
2023-02-01T13:53:30.411Z,6.10
2023-02-01T13:58:40.962Z,11.30
2023-02-01T14:03:49.957Z,22.40
2023-02-01T14:09:31.406Z,18.60
2023-02-01T14:14:33.025Z,12.10
2023-02-01T14:19:35.544Z,16.70
2023-02-01T14:24:38.168Z,20.40
2023-02-01T14:29:43.238Z,18.70
2023-02-01T14:34:47.886Z,17.80
2023-02-01T14:50:34.047Z,13.60
2023-02-01T14:55:41.546Z,12.40
2023-02-01T15:00:50.221Z,12.10
2023-02-01T15:06:01.761Z,13.70
2023-02-01T15:11:11.927Z,17.20
2023-02-01T15:16:16.194Z,17.10
2023-02-01T15:21:28.190Z,10.10
2023-02-01T15:26:33.472Z,4.20
2023-02-01T15:31:39.756Z,4.20
2023-02-01T15:36:56.581Z,5.40
2023-02-01T15:42:12.534Z,5.50
2023-02-01T15:47:18.716Z,7.50
2023-02-01T15:52:23.432Z,12.40
2023-02-01T15:57:44.433Z,13.80
2023-02-01T16:02:59.081Z,17.00
2023-02-01T16:08:06.323Z,17.00
2023-02-01T16:13:08.254Z,9.10
2023-02-01T16:18:11.783Z,15.90
2023-02-01T16:23:13.659Z,17.40
2023-02-01T16:28:15.477Z,20.10
2023-02-01T16:33:22.759Z,11.30
2023-02-01T16:38:24.739Z,9.30
2023-02-01T16:43:27.316Z,9.30
2023-02-01T16:48:36.281Z,5.60
2023-02-01T16:53:53.185Z,8.60
2023-02-01T16:58:56.150Z,5.10
2023-02-01T17:03:58.802Z,6.60
2023-02-01T17:09:03.357Z,7.30
2023-02-01T17:14:19.215Z,18.00
2023-02-01T17:19:26.104Z,22.90
2023-02-01T17:24:46.543Z,33.20
2023-02-01T17:29:50.002Z,22.20
2023-02-01T17:34:52.396Z,20.10
2023-02-01T17:39:56.916Z,29.40
2023-02-01T17:45:14.683Z,30.10
2023-02-01T17:50:16.862Z,23.70
2023-02-01T17:55:23.470Z,20.60
2023-02-01T18:00:25.568Z,23.60
2023-02-01T18:05:51.032Z,18.90
2023-02-01T18:10:55.806Z,39.50
2023-02-01T18:15:59.851Z,47.90
2023-02-01T18:21:01.696Z,29.40
2023-02-01T18:26:04.386Z,25.50
2023-02-01T18:31:06.240Z,20.10
2023-02-01T18:36:12.800Z,16.00
2023-02-01T18:41:21.762Z,16.80
2023-02-01T18:46:23.681Z,13.90
2023-02-01T18:51:25.439Z,14.90
2023-02-01T18:56:27.172Z,21.70
2023-02-01T19:01:28.946Z,43.20
2023-02-01T19:06:30.639Z,50.60
2023-02-01T19:11:32.428Z,46.50
2023-02-01T19:16:36.047Z,49.70
2023-02-01T19:21:37.737Z,38.80
2023-02-01T19:26:41.535Z,31.00
2023-02-01T19:31:44.422Z,26.60
2023-02-01T19:36:46.144Z,23.80
2023-02-01T19:41:48.313Z,30.20
2023-02-01T19:46:50.250Z,33.50
2023-02-01T19:51:52.167Z,33.10
2023-02-01T19:56:53.961Z,33.30
2023-02-01T20:01:55.138Z,31.80
2023-02-01T20:06:57.359Z,24.80
2023-02-01T20:12:00.717Z,23.70
2023-02-01T20:17:03.002Z,24.10
2023-02-01T20:22:05.055Z,23.10
2023-02-01T20:27:10.734Z,25.30
2023-02-01T20:32:12.463Z,9.10
2023-02-01T20:37:14.418Z,9.90
2023-02-01T20:42:16.486Z,13.70
2023-02-01T20:47:18.214Z,13.90
2023-02-01T20:52:20.098Z,14.60
2023-02-01T20:57:22.012Z,13.00
2023-02-01T21:02:24.311Z,12.60
2023-02-01T21:07:26.470Z,14.60
2023-02-01T21:12:28.325Z,10.00
2023-02-01T21:17:31.482Z,13.80
2023-02-01T21:22:33.285Z,20.30
2023-02-01T21:27:35.108Z,15.90
2023-02-01T21:32:37.347Z,16.00
2023-02-01T21:37:39.097Z,15.50
2023-02-01T21:42:43.714Z,19.90
2023-02-01T21:52:47.178Z,19.20
2023-02-01T21:57:51.661Z,20.40
2023-02-01T22:02:53.490Z,15.60
2023-02-01T22:07:55.615Z,18.10
2023-02-01T22:13:03.323Z,14.20
2023-02-01T22:18:05.039Z,15.30
2023-02-01T22:23:06.767Z,8.50
2023-02-01T22:28:31.860Z,10.30
2023-02-01T22:33:30.522Z,10.90
2023-02-01T22:38:34.197Z,6.80
2023-02-01T22:43:36.163Z,6.40
2023-02-01T22:48:39.899Z,4.10
2023-02-01T22:53:41.632Z,5.10
2023-02-01T22:58:43.423Z,4.80
2023-02-01T23:03:45.134Z,7.10
2023-02-01T23:08:47.009Z,5.50
2023-02-01T23:13:48.815Z,10.50
2023-02-01T23:18:50.590Z,7.40
2023-02-01T23:23:54.986Z,6.10
2023-02-01T23:28:57.958Z,5.70
2023-02-01T23:34:01.996Z,4.20
2023-02-01T23:39:03.761Z,3.90
2023-02-01T23:44:05.718Z,10.40
2023-02-01T23:49:08.744Z,5.40
2023-02-01T23:54:11.803Z,4.60
2023-02-01T23:59:26.499Z,3.30
